Time;durP1;ratioP1;P1;durP2;ratioP2;P2;SDS_P1;SDS_P2;PMS_P1;PMS_P2;Temp;Humidity;BMP_temperature;BMP_pressure;BME280_temperature;BME280_humidity;BME280_pressure;Samples;Min_cycle;Max_cycle;Signal;HPM_P1;HPM_P2
2021/11/09 00:02:24;;;;;;;6.35;4.62;;;23.40;90.50;;;;;;1922433;73;21582;-74
2021/11/09 00:04:56;;;;;;;6.62;3.62;;;23.40;90.40;;;;;;1928121;73;21112;-74
2021/11/09 00:07:36;;;;;;;4.72;3.25;;;23.50;90.70;;;;;;1921939;73;21108;-73
2021/11/09 00:09:59;;;;;;;6.30;3.40;;;23.60;89.60;;;;;;1912020;73;21650;-73
2021/11/09 00:12:32;;;;;;;4.92;3.47;;;23.60;90.00;;;;;;1924385;73;21145;-73
2021/11/09 00:15:06;;;;;;;5.53;3.15;;;23.60;89.80;;;;;;1918004;73;21111;-74
2021/11/09 00:17:37;;;;;;;5.58;2.80;;;23.60;89.40;;;;;;1923879;73;21607;-73
2021/11/09 00:20:10;;;;;;;5.70;3.25;;;23.60;89.10;;;;;;1919840;73;21155;-73
2021/11/09 00:22:42;;;;;;;7.28;3.75;;;23.60;89.20;;;;;;1920948;74;21100;-74
2021/11/09 00:25:15;;;;;;;5.50;3.15;;;23.70;89.50;;;;;;1929518;74;21065;-73
2021/11/09 00:27:47;;;;;;;9.60;4.12;;;23.70;89.30;;;;;;1881095;75;21693;-75
2021/11/09 00:30:30;;;;;;;14.85;8.53;;;23.80;89.20;;;;;;1881172;74;21134;-74
2021/11/09 00:33:03;;;;;;;12.78;6.30;;;23.80;88.80;;;;;;1905688;74;21122;-74
2021/11/09 00:35:35;;;;;;;7.08;4.45;;;23.90;88.70;;;;;;1901358;73;21185;-73
2021/11/09 00:38:09;;;;;;;8.15;3.85;;;23.90;88.50;;;;;;1912281;75;21393;-73
2021/11/09 00:40:43;;;;;;;12.40;4.20;;;23.90;88.60;;;;;;1884203;75;21527;-74
2021/11/09 00:43:16;;;;;;;4.67;3.35;;;23.90;88.60;;;;;;1929610;73;21583;-73
2021/11/09 00:45:47;;;;;;;9.75;3.72;;;24.00;88.50;;;;;;1910629;73;21119;-72
2021/11/09 00:48:19;;;;;;;8.08;3.27;;;24.00;88.40;;;;;;1903758;73;21124;-74
2021/11/09 00:50:53;;;;;;;6.67;3.40;;;24.00;87.60;;;;;;1912871;73;21177;-73
2021/11/09 00:53:24;;;;;;;6.40;3.05;;;24.10;87.70;;;;;;1915430;73;21176;-72
2021/11/09 00:55:56;;;;;;;5.10;2.85;;;24.10;87.60;;;;;;1877512;75;21168;-73
2021/11/09 00:58:27;;;;;;;5.20;3.30;;;24.30;87.40;;;;;;1901255;75;21192;-74
2021/11/09 01:00:58;;;;;;;6.28;2.75;;;24.40;86.50;;;;;;1890364;74;21123;-76
2021/11/09 01:03:29;;;;;;;5.30;2.40;;;24.40;85.30;;;;;;1926852;73;21177;-75
2021/11/09 01:06:00;;;;;;;31.17;5.08;;;24.50;84.50;;;;;;1898894;73;21168;-74
2021/11/09 01:08:32;;;;;;;5.60;3.02;;;24.40;84.90;;;;;;1876732;75;21605;-74
2021/11/09 01:11:03;;;;;;;7.95;3.40;;;24.50;85.20;;;;;;1876181;75;21738;-75
2021/11/09 01:13:34;;;;;;;9.20;3.87;;;24.50;85.00;;;;;;1901220;73;21165;-74
2021/11/09 01:16:06;;;;;;;8.88;3.40;;;24.50;85.00;;;;;;1935585;73;21626;-73
2021/11/09 01:18:39;;;;;;;6.55;3.42;;;24.50;85.60;;;;;;1919562;73;21088;-73
2021/11/09 01:21:15;;;;;;;7.90;3.72;;;24.40;86.00;;;;;;1925038;73;21510;-73
2021/11/09 01:23:44;;;;;;;4.83;3.40;;;24.40;85.80;;;;;;1935892;72;21577;-73
2021/11/09 01:26:16;;;;;;;5.85;3.02;;;24.30;86.90;;;;;;1937403;72;22134;-74
2021/11/09 01:28:49;;;;;;;11.73;4.25;;;24.30;86.50;;;;;;1903339;73;21176;-74
2021/11/09 01:31:21;;;;;;;5.22;3.30;;;24.30;86.80;;;;;;1858382;75;21133;-74
2021/11/09 01:33:53;;;;;;;5.70;3.80;;;24.20;86.90;;;;;;1932856;72;21676;-74
2021/11/09 01:36:24;;;;;;;7.20;3.85;;;24.20;86.90;;;;;;1940875;72;21103;-74
2021/11/09 01:38:56;;;;;;;6.37;3.60;;;24.20;87.10;;;;;;1936720;72;21211;-74
2021/11/09 01:41:28;;;;;;;9.55;4.62;;;24.20;87.40;;;;;;1936290;74;21172;-73
2021/11/09 01:43:59;;;;;;;5.60;3.50;;;24.30;88.40;;;;;;1916508;73;21058;-74
2021/11/09 01:46:30;;;;;;;6.47;3.98;;;24.30;88.60;;;;;;1917402;72;21083;-74
2021/11/09 01:49:02;;;;;;;6.90;3.67;;;24.40;88.10;;;;;;1913727;73;21154;-74
2021/11/09 01:51:33;;;;;;;6.05;3.20;;;24.40;87.60;;;;;;1932802;74;21103;-73
2021/11/09 01:54:05;;;;;;;8.25;5.60;;;24.40;86.70;;;;;;1926033;72;21131;-73
2021/11/09 01:56:38;;;;;;;10.90;4.62;;;24.50;86.30;;;;;;1924441;72;21043;-74
2021/11/09 01:59:08;;;;;;;6.85;2.60;;;24.60;86.20;;;;;;1925127;72;21106;-76
2021/11/09 02:01:39;;;;;;;4.50;3.02;;;24.70;85.50;;;;;;1920851;72;21139;-74
2021/11/09 02:04:11;;;;;;;5.72;2.35;;;24.70;84.10;;;;;;1922260;74;21330;-76
2021/11/09 02:06:42;;;;;;;5.53;2.40;;;24.80;83.30;;;;;;1924311;74;21103;-76
2021/11/09 02:09:15;;;;;;;3.55;2.30;;;24.80;83.00;;;;;;1915408;73;21560;-75
2021/11/09 02:11:48;;;;;;;3.67;2.17;;;24.70;82.00;;;;;;1919109;74;21095;-76
2021/11/09 02:14:19;;;;;;;3.08;2.22;;;24.80;82.10;;;;;;1930535;72;21063;-75
2021/11/09 02:16:51;;;;;;;3.98;3.30;;;24.80;82.40;;;;;;1945832;72;21161;-76
2021/11/09 02:19:23;;;;;;;4.62;2.55;;;24.80;83.20;;;;;;1933767;73;21099;-76
2021/11/09 02:21:54;;;;;;;8.28;4.08;;;24.90;82.00;;;;;;1942781;73;21691;-76
2021/11/09 02:24:25;;;;;;;5.28;3.27;;;24.90;82.10;;;;;;1933377;73;21671;-76
2021/11/09 02:26:56;;;;;;;5.17;2.85;;;25.00;82.50;;;;;;1949139;71;21103;-76
2021/11/09 02:29:27;;;;;;;4.08;2.50;;;25.00;82.10;;;;;;1944815;71;21218;-75
2021/11/09 02:31:58;;;;;;;3.40;2.75;;;25.10;82.20;;;;;;1944920;71;21532;-74
2021/11/09 02:34:29;;;;;;;4.12;2.50;;;25.20;81.90;;;;;;1945129;72;21147;-75
2021/11/09 02:37:00;;;;;;;5.83;2.58;;;25.30;81.90;;;;;;1952251;71;21128;-76
2021/11/09 02:39:30;;;;;;;4.53;2.58;;;25.30;81.00;;;;;;1953217;72;21178;-75
2021/11/09 02:42:02;;;;;;;4.92;3.62;;;25.30;80.00;;;;;;1951907;71;21085;-76
2021/11/09 02:44:33;;;;;;;4.83;2.90;;;25.40;80.60;;;;;;1950541;72;21070;-74
2021/11/09 02:47:07;;;;;;;5.12;2.60;;;25.50;80.50;;;;;;1960361;72;21178;-75
2021/11/09 02:49:54;;;;;;;3.15;2.30;;;25.50;79.40;;;;;;1933825;73;21209;-74
2021/11/09 02:52:08;;;;;;;3.92;2.50;;;25.50;79.50;;;;;;1941474;72;21117;-74
2021/11/09 02:54:43;;;;;;;3.98;2.77;;;25.60;79.20;;;;;;1874814;74;21114;-74
2021/11/09 02:57:25;;;;;;;4.12;2.52;;;25.60;79.40;;;;;;1950290;72;21174;-72
2021/11/09 02:59:55;;;;;;;4.05;2.75;;;25.60;79.90;;;;;;1946785;72;21122;-72
2021/11/09 03:12:28;;;;;;;3.72;2.40;;;25.70;78.90;;;;;;1958182;71;21132;-73
2021/11/09 03:15:25;;;;;;;3.47;2.30;;;25.80;78.80;;;;;;1933157;72;21577;-72
2021/11/09 03:17:59;;;;;;;3.12;2.50;;;25.80;78.50;;;;;;1917690;74;21610;-73
2021/11/09 03:20:29;;;;;;;5.83;2.90;;;25.90;78.10;;;;;;1871452;75;21606;-73
2021/11/09 03:40:00;;;;;;;4.97;2.40;;;26.00;78.20;;;;;;1898149;74;21728;-73
2021/11/09 03:44:11;;;;;;;5.70;3.00;;;26.40;77.10;;;;;;1830308;77;21211;-73
2021/11/09 03:45:51;;;;;;;5.25;3.70;;;26.60;76.50;;;;;;1881816;74;21102;-73
2021/11/09 03:48:22;;;;;;;5.83;3.15;;;26.60;76.40;;;;;;1849377;75;21489;-74
2021/11/09 03:50:59;;;;;;;5.37;3.12;;;26.80;76.50;;;;;;1882419;74;21178;-73
2021/11/09 03:53:28;;;;;;;3.60;2.77;;;26.80;76.20;;;;;;1884460;74;21190;-74
2021/11/09 03:56:10;;;;;;;6.25;3.55;;;26.90;75.50;;;;;;1886074;74;21158;-74
2021/11/09 03:58:38;;;;;;;4.78;2.95;;;26.80;75.80;;;;;;1888113;74;21123;-74
2021/11/09 04:01:06;;;;;;;4.00;2.60;;;26.90;76.60;;;;;;1888277;74;21122;-76
2021/11/09 04:08:45;;;;;;;5.17;2.83;;;27.10;75.90;;;;;;1868774;76;21119;-76
2021/11/09 04:18:56;;;;;;;5.55;2.95;;;27.30;75.00;;;;;;1894449;74;21205;-74
2021/11/09 04:31:44;;;;;;;2.95;2.35;;;28.00;73.50;;;;;;1852504;76;21587;-75
2021/11/09 04:52:11;;;;;;;5.40;3.05;;;28.40;70.40;;;;;;1899739;74;21173;-70
2021/11/09 05:12:04;;;;;;;3.05;2.00;;;;;;;;;;1896025;74;21176;-71
2021/11/09 05:14:36;;;;;;;3.58;2.50;;;;;;;;;;1839605;76;21767;-71
2021/11/09 05:17:06;;;;;;;4.67;2.60;;;29.70;99.90;;;;;;1883494;73;21182;-72
2021/11/09 05:19:37;;;;;;;4.40;2.85;;;29.70;95.30;;;;;;1849824;75;21125;-72
2021/11/09 05:22:07;;;;;;;4.37;2.87;;;29.80;95.40;;;;;;1848503;76;21174;-71
2021/11/09 05:24:42;;;;;;;3.65;2.60;;;29.60;73.00;;;;;;1844726;76;21131;-71
2021/11/09 05:27:15;;;;;;;5.33;2.67;;;29.50;68.00;;;;;;1885209;74;21181;-72
2021/11/09 05:29:46;;;;;;;3.98;2.80;;;29.50;68.10;;;;;;1892313;74;21592;-72
2021/11/09 05:32:17;;;;;;;6.15;3.17;;;29.50;68.10;;;;;;1889827;74;21135;-71
2021/11/09 05:34:49;;;;;;;4.05;2.60;;;29.60;67.80;;;;;;1877031;75;21108;-71
2021/11/09 05:37:23;;;;;;;6.90;2.90;;;29.70;68.40;;;;;;1879653;74;21106;-72
2021/11/09 05:39:53;;;;;;;3.85;3.10;;;29.60;68.10;;;;;;1875802;74;21589;-72
2021/11/09 05:42:24;;;;;;;5.97;2.80;;;29.60;67.40;;;;;;1880142;75;21189;-72
2021/11/09 05:44:56;;;;;;;5.85;2.60;;;29.60;67.60;;;;;;1853497;75;21110;-72
2021/11/09 05:47:28;;;;;;;4.92;3.12;;;29.50;68.20;;;;;;1828120;76;21166;-71
2021/11/09 05:49:59;;;;;;;3.55;2.70;;;29.50;68.90;;;;;;1865319;75;21091;-70
2021/11/09 05:52:30;;;;;;;4.08;2.60;;;29.50;68.80;;;;;;1885870;75;21574;-69
2021/11/09 05:55:01;;;;;;;4.92;2.70;;;29.50;67.70;;;;;;1895214;74;21161;-71
2021/11/09 05:57:32;;;;;;;3.50;2.70;;;29.50;67.90;;;;;;1873289;74;21111;-73
2021/11/09 06:00:04;;;;;;;5.70;2.62;;;29.40;68.50;;;;;;1866751;75;21126;-70
2021/11/09 06:02:36;;;;;;;4.05;2.87;;;29.40;69.20;;;;;;1887421;74;21165;-71
2021/11/09 06:05:08;;;;;;;3.90;2.60;;;29.40;68.60;;;;;;1868458;75;21091;-70
2021/11/09 06:07:39;;;;;;;4.45;2.80;;;29.30;68.80;;;;;;1888961;74;21143;-69
2021/11/09 06:10:10;;;;;;;4.28;2.77;;;29.30;68.60;;;;;;1875238;74;21251;-70
2021/11/09 06:12:40;;;;;;;3.40;2.70;;;29.20;69.30;;;;;;1885011;75;21203;-71
2021/11/09 06:15:11;;;;;;;5.20;2.85;;;29.20;68.70;;;;;;1869931;75;21075;-71
2021/11/09 06:17:42;;;;;;;5.12;2.70;;;29.20;68.40;;;;;;1886681;74;21095;-70
2021/11/09 06:20:14;;;;;;;3.85;2.80;;;29.20;69.10;;;;;;1887205;75;21086;-71
2021/11/09 06:22:44;;;;;;;3.72;2.85;;;29.20;69.30;;;;;;1868469;73;21495;-71
2021/11/09 06:25:15;;;;;;;4.00;2.83;;;29.20;68.80;;;;;;1884212;75;21647;-70
2021/11/09 06:27:46;;;;;;;4.40;2.80;;;29.20;69.00;;;;;;1903982;74;22264;-71
2021/11/09 06:30:17;;;;;;;4.70;3.15;;;29.20;68.80;;;;;;1891075;74;21130;-72
2021/11/09 06:32:50;;;;;;;4.97;2.72;;;29.20;68.40;;;;;;1879827;74;21075;-72
2021/11/09 06:35:21;;;;;;;6.92;3.67;;;29.20;68.30;;;;;;1879986;74;21265;-72
2021/11/09 06:37:52;;;;;;;4.90;3.15;;;29.10;68.50;;;;;;1892215;74;21110;-71
2021/11/09 06:40:23;;;;;;;3.75;2.83;;;29.20;68.40;;;;;;1877057;74;21551;-71
2021/11/09 06:42:54;;;;;;;8.55;3.02;;;29.20;68.30;;;;;;1895898;74;21679;-71
2021/11/09 06:45:26;;;;;;;4.53;2.80;;;29.20;69.00;;;;;;1892292;74;21680;-71
2021/11/09 06:47:57;;;;;;;3.67;2.85;;;29.20;69.10;;;;;;1893508;74;21708;-71
2021/11/09 06:50:28;;;;;;;4.75;2.70;;;29.30;69.20;;;;;;1885683;74;21118;-73
2021/11/09 06:52:59;;;;;;;5.22;3.00;;;29.50;68.80;;;;;;1888746;74;21106;-72
2021/11/09 06:55:34;;;;;;;4.90;2.85;;;29.50;68.40;;;;;;1890381;74;21312;-71
2021/11/09 06:58:03;;;;;;;4.53;2.85;;;29.50;68.10;;;;;;1879352;74;21687;-71
2021/11/09 07:00:38;;;;;;;3.40;2.80;;;29.50;67.90;;;;;;1894974;74;21634;-70
2021/11/09 07:03:09;;;;;;;3.92;2.80;;;29.60;67.70;;;;;;1889204;75;21127;-72
2021/11/09 07:05:40;;;;;;;6.28;3.00;;;29.60;67.40;;;;;;1898787;74;21139;-70
2021/11/09 07:08:11;;;;;;;6.22;2.72;;;29.60;67.60;;;;;;1891652;74;21225;-71
2021/11/09 07:10:43;;;;;;;5.45;2.83;;;29.60;67.90;;;;;;1896719;74;21147;-71
2021/11/09 07:13:15;;;;;;;5.10;3.12;;;29.60;67.60;;;;;;1892800;74;21143;-73
2021/11/09 07:15:45;;;;;;;3.37;2.40;;;29.60;67.60;;;;;;1899770;74;21106;-72
2021/11/09 07:18:17;;;;;;;4.37;2.75;;;29.70;67.90;;;;;;1888924;75;21197;-71
2021/11/09 07:20:49;;;;;;;4.78;2.95;;;29.70;67.40;;;;;;1883205;75;21128;-71
2021/11/09 07:23:20;;;;;;;3.58;2.62;;;29.70;67.60;;;;;;1882354;74;21126;-71
2021/11/09 07:25:51;;;;;;;5.25;3.08;;;29.70;67.70;;;;;;1849800;76;21181;-72
2021/11/09 07:28:22;;;;;;;4.60;2.80;;;29.70;67.50;;;;;;1888025;75;21134;-71
2021/11/09 07:30:58;;;;;;;5.20;2.80;;;29.70;67.70;;;;;;1893901;73;21115;-71
2021/11/09 07:33:25;;;;;;;7.60;3.25;;;29.70;67.40;;;;;;1867785;74;21737;-72
2021/11/09 07:35:56;;;;;;;5.35;2.60;;;29.70;66.90;;;;;;1892933;75;21078;-72
2021/11/09 07:38:27;;;;;;;5.90;3.10;;;29.80;67.40;;;;;;1888530;74;21822;-70
2021/11/09 07:40:58;;;;;;;4.58;2.80;;;29.70;67.70;;;;;;1881536;75;21215;-71
2021/11/09 07:43:29;;;;;;;5.12;3.85;;;29.70;67.80;;;;;;1889793;74;21125;-70
2021/11/09 07:45:59;;;;;;;3.60;3.00;;;29.70;67.40;;;;;;1879857;75;21131;-70
2021/11/09 07:48:33;;;;;;;5.37;3.20;;;29.70;67.70;;;;;;1886841;74;21131;-71
2021/11/09 07:51:04;;;;;;;5.37;3.40;;;29.70;67.70;;;;;;1858302;76;21647;-70
2021/11/09 07:53:38;;;;;;;5.78;3.47;;;29.70;67.50;;;;;;1886743;74;21201;-70
2021/11/09 07:56:20;;;;;;;4.37;3.33;;;29.70;67.90;;;;;;1884058;73;21121;-72
2021/11/09 08:01:17;;;;;;;5.70;2.83;;;29.60;68.00;;;;;;1893122;75;21083;-70
2021/11/09 08:04:02;;;;;;;4.65;2.70;;;29.60;68.00;;;;;;1895788;74;21429;-69
2021/11/09 08:06:24;;;;;;;7.45;3.05;;;29.60;68.00;;;;;;1890432;74;21151;-69
2021/11/09 08:09:00;;;;;;;6.30;3.33;;;29.50;67.70;;;;;;1894785;74;21159;-70
2021/11/09 08:11:23;;;;;;;5.00;3.25;;;29.50;68.10;;;;;;1889873;73;21115;-70
2021/11/09 08:13:54;;;;;;;3.98;2.90;;;29.50;67.30;;;;;;1893011;73;21201;-71
2021/11/09 08:16:25;;;;;;;5.17;3.70;;;29.50;68.00;;;;;;1893805;74;21096;-70
2021/11/09 08:18:56;;;;;;;6.00;4.12;;;29.50;67.70;;;;;;1875889;75;21155;-71
2021/11/09 08:21:27;;;;;;;4.08;2.85;;;29.50;68.10;;;;;;1847729;75;21261;-71
2021/11/09 08:23:58;;;;;;;5.33;2.60;;;29.60;68.50;;;;;;1884910;75;21114;-70
2021/11/09 08:26:29;;;;;;;3.60;2.80;;;29.50;67.60;;;;;;1864736;75;21144;-70
2021/11/09 08:29:04;;;;;;;5.20;3.00;;;29.50;67.60;;;;;;1882857;76;21176;-70
2021/11/09 08:31:34;;;;;;;6.47;3.40;;;29.50;68.10;;;;;;1843271;77;21559;-71
2021/11/09 08:34:06;;;;;;;6.60;3.92;;;29.50;68.60;;;;;;1858035;75;21088;-70
2021/11/09 08:36:39;;;;;;;6.22;3.83;;;29.50;68.40;;;;;;1890247;75;21075;-70
2021/11/09 08:39:11;;;;;;;5.47;4.08;;;29.60;68.70;;;;;;1874316;75;21154;-70
2021/11/09 08:41:46;;;;;;;5.08;2.90;;;29.60;68.00;;;;;;1846643;77;21133;-70
2021/11/09 08:44:20;;;;;;;5.42;3.22;;;29.60;68.00;;;;;;1867413;76;21625;-71
2021/11/09 08:46:56;;;;;;;5.70;3.67;;;29.60;68.00;;;;;;1845608;75;21119;-71
2021/11/09 08:49:23;;;;;;;4.55;3.05;;;29.60;68.50;;;;;;1868379;75;21232;-71
2021/11/09 08:51:56;;;;;;;4.05;3.12;;;29.60;68.80;;;;;;1869210;75;21201;-72
2021/11/09 08:54:32;;;;;;;8.35;5.03;;;29.60;68.40;;;;;;1863636;75;21178;-71
2021/11/09 09:04:39;;;;;;;6.62;3.62;;;29.50;68.60;;;;;;1860144;76;21194;-71
2021/11/09 09:07:09;;;;;;;5.55;3.25;;;29.50;68.60;;;;;;1846068;76;21953;-70
2021/11/09 09:09:40;;;;;;;5.03;3.37;;;29.50;68.60;;;;;;1880429;75;21197;-71
2021/11/09 09:12:11;;;;;;;4.05;2.87;;;29.50;68.80;;;;;;1865669;76;21158;-71
2021/11/09 09:14:42;;;;;;;5.22;3.47;;;29.40;68.80;;;;;;1864486;76;21203;-72
2021/11/09 09:17:12;;;;;;;5.92;3.45;;;29.50;69.90;;;;;;1870473;75;21099;-71
2021/11/09 09:19:56;;;;;;;4.17;3.02;;;29.40;69.50;;;;;;1875040;75;21108;-70
2021/11/09 09:22:20;;;;;;;6.33;3.10;;;29.50;68.80;;;;;;1869781;76;21974;-71
2021/11/09 09:57:52;;;;;;;7.67;4.05;;;28.90;70.40;;;;;;1888156;74;21215;-72
2021/11/09 10:00:24;;;;;;;6.15;4.17;;;28.90;70.80;;;;;;1877225;75;21142;-72
2021/11/09 10:02:57;;;;;;;6.42;4.65;;;28.90;71.20;;;;;;1876680;74;21204;-71
2021/11/09 10:05:29;;;;;;;5.80;3.80;;;28.90;71.20;;;;;;1885044;74;21157;-70
2021/11/09 10:08:03;;;;;;;6.65;3.35;;;28.80;71.50;;;;;;1890001;75;21146;-71
2021/11/09 10:10:35;;;;;;;5.80;3.92;;;28.80;71.70;;;;;;1886441;75;21125;-71
2021/11/09 10:13:12;;;;;;;8.65;4.58;;;28.80;71.80;;;;;;1891916;74;21141;-71
2021/11/09 10:15:42;;;;;;;8.15;5.33;;;28.80;72.10;;;;;;1870329;74;21644;-71
2021/11/09 10:18:16;;;;;;;5.47;3.75;;;28.80;72.30;;;;;;1873211;75;21064;-71
2021/11/09 10:20:48;;;;;;;7.58;4.50;;;28.70;72.30;;;;;;1877906;76;21130;-70
2021/11/09 10:23:21;;;;;;;6.00;4.15;;;28.70;72.50;;;;;;1878474;75;21593;-70
2021/11/09 10:25:59;;;;;;;8.73;4.40;;;28.70;72.70;;;;;;1875420;76;21136;-69
2021/11/09 10:28:26;;;;;;;10.48;3.98;;;28.60;72.50;;;;;;1899164;74;21566;-70
2021/11/09 10:31:00;;;;;;;6.17;4.08;;;28.60;72.70;;;;;;1881749;74;21122;-70
2021/11/09 10:33:51;;;;;;;8.35;3.98;;;28.60;73.00;;;;;;1873308;74;21609;-70
2021/11/09 10:36:32;;;;;;;6.83;4.12;;;28.60;73.30;;;;;;1943966;72;21633;-68
2021/11/09 10:38:57;;;;;;;7.42;4.40;;;28.50;73.80;;;;;;1943202;72;21135;-70
2021/11/09 10:41:28;;;;;;;7.60;4.58;;;28.50;73.80;;;;;;1948574;72;21166;-70
2021/11/09 10:44:01;;;;;;;7.83;4.58;;;28.50;74.10;;;;;;1965905;72;21712;-69
2021/11/09 10:46:32;;;;;;;9.03;6.42;;;28.50;74.40;;;;;;1969161;72;21507;-70
2021/11/09 10:49:03;;;;;;;8.78;5.45;;;28.40;74.60;;;;;;1884706;75;21198;-70
2021/11/09 10:51:36;;;;;;;10.58;5.17;;;28.40;75.10;;;;;;1956602;71;21067;-72
2021/11/09 10:54:06;;;;;;;8.08;4.83;;;28.40;75.20;;;;;;1940596;72;21618;-70
2021/11/09 10:57:07;;;;;;;8.68;5.53;;;28.30;75.50;;;;;;1937813;73;21151;-72
2021/11/09 11:04:15;;;;;;;10.03;5.78;;;28.30;76.10;;;;;;1932272;72;21536;-71
2021/11/09 11:06:48;;;;;;;12.25;6.03;;;28.20;76.30;;;;;;1936792;72;21603;-70
2021/11/09 11:09:22;;;;;;;20.00;12.90;;;28.20;76.50;;;;;;1935188;72;21131;-70
2021/11/09 11:11:59;;;;;;;11.35;7.03;;;28.20;76.80;;;;;;1938412;72;21132;-70
2021/11/09 11:14:31;;;;;;;14.28;7.22;;;28.20;76.80;;;;;;1927026;72;21150;-70
2021/11/09 11:17:04;;;;;;;15.80;8.13;;;28.10;76.90;;;;;;1959122;72;21126;-70
2021/11/09 11:19:37;;;;;;;19.73;9.20;;;28.10;77.20;;;;;;1935554;72;21808;-71
2021/11/09 11:22:10;;;;;;;14.13;8.80;;;28.10;77.30;;;;;;1947886;73;21101;-70
2021/11/09 11:24:43;;;;;;;19.67;9.18;;;28.10;77.40;;;;;;1948829;72;21129;-70
2021/11/09 11:27:15;;;;;;;13.70;8.93;;;28.10;77.30;;;;;;1952966;72;21602;-70
2021/11/09 11:29:47;;;;;;;16.70;8.58;;;28.00;77.30;;;;;;1948245;72;21111;-80
2021/11/09 11:32:20;;;;;;;17.20;8.95;;;28.00;77.30;;;;;;1946119;73;21115;-77
2021/11/09 11:34:53;;;;;;;13.18;8.43;;;28.00;77.50;;;;;;1940984;73;21688;-77
2021/11/09 11:37:24;;;;;;;13.00;7.67;;;27.90;77.50;;;;;;1908991;74;21170;-77
2021/11/09 11:40:05;;;;;;;13.15;8.58;;;27.90;77.70;;;;;;1926528;74;21123;-77
2021/11/09 11:42:32;;;;;;;14.33;8.73;;;27.90;78.10;;;;;;1927064;73;21221;-76
2021/11/09 11:45:07;;;;;;;11.60;8.48;;;27.80;78.10;;;;;;1897735;74;21558;-77
2021/11/09 11:47:38;;;;;;;14.93;10.20;;;27.80;77.70;;;;;;1935907;74;21123;-77
2021/11/09 11:50:13;;;;;;;17.48;9.43;;;27.80;78.40;;;;;;1933003;74;21164;-78
2021/11/09 11:52:46;;;;;;;19.17;9.43;;;27.80;78.60;;;;;;1918307;74;21072;-79
2021/11/09 11:55:23;;;;;;;19.10;10.38;;;27.80;79.00;;;;;;1907710;73;21913;-79
2021/11/09 11:57:54;;;;;;;19.42;10.82;;;27.70;79.00;;;;;;1924206;74;21178;-78
2021/11/09 12:00:28;;;;;;;15.13;10.30;;;27.70;79.20;;;;;;1919142;73;21677;-78
2021/11/09 12:03:04;;;;;;;15.23;9.65;;;27.70;79.40;;;;;;1917687;74;21135;-79
2021/11/09 12:05:36;;;;;;;14.45;9.75;;;27.70;79.30;;;;;;1889577;74;21593;-78
2021/11/09 12:08:09;;;;;;;15.90;10.08;;;27.70;79.40;;;;;;1912673;74;21660;-78
2021/11/09 12:10:43;;;;;;;17.00;11.28;;;27.70;80.10;;;;;;1911388;74;21139;-78
2021/11/09 12:13:17;;;;;;;20.12;11.35;;;27.60;79.70;;;;;;1912464;74;21592;-78
2021/11/09 12:15:50;;;;;;;14.40;11.20;;;27.60;79.80;;;;;;1916336;74;21615;-78
2021/11/09 12:18:24;;;;;;;19.17;11.22;;;27.60;80.00;;;;;;1935164;73;21079;-78
2021/11/09 12:21:02;;;;;;;17.10;11.22;;;27.50;81.20;;;;;;1902417;74;21570;-79
2021/11/09 12:23:36;;;;;;;20.37;10.68;;;27.50;80.20;;;;;;1924145;73;21154;-79
2021/11/09 12:26:12;;;;;;;16.77;10.85;;;27.40;80.20;;;;;;1922689;74;21120;-78
2021/11/09 12:28:45;;;;;;;19.48;10.53;;;27.40;80.10;;;;;;1920398;74;21115;-78
2021/11/09 12:31:18;;;;;;;19.75;11.65;;;27.40;80.40;;;;;;1937961;73;21075;-78
2021/11/09 12:33:51;;;;;;;16.42;10.08;;;27.40;81.00;;;;;;1937326;72;21149;-78
2021/11/09 12:36:26;;;;;;;16.65;10.23;;;27.30;80.70;;;;;;1944527;72;21171;-79
2021/11/09 12:38:58;;;;;;;16.48;11.00;;;27.30;81.00;;;;;;1951339;72;22274;-77
2021/11/09 12:41:32;;;;;;;17.07;11.30;;;27.30;81.60;;;;;;1908682;74;21208;-78
2021/11/09 12:44:07;;;;;;;16.90;11.65;;;27.30;81.70;;;;;;1915353;74;21198;-78
2021/11/09 12:46:40;;;;;;;18.45;10.28;;;27.30;81.90;;;;;;1886126;75;21100;-78
2021/11/09 12:49:14;;;;;;;23.30;16.10;;;27.20;81.90;;;;;;1902791;74;21608;-78
2021/11/09 12:51:45;;;;;;;14.78;10.20;;;27.20;82.30;;;;;;1925670;73;21109;-78
2021/11/09 12:54:19;;;;;;;17.90;10.30;;;27.20;82.30;;;;;;1925252;72;21206;-79
2021/11/09 12:56:56;;;;;;;15.08;10.45;;;27.20;82.10;;;;;;1934177;72;21889;-77
2021/11/09 12:59:35;;;;;;;14.75;9.50;;;27.20;82.20;;;;;;1939766;72;21173;-78
2021/11/09 13:10:06;;;;;;;14.65;9.80;;;27.10;82.40;;;;;;1952421;71;21180;-78
2021/11/09 13:12:35;;;;;;;14.68;9.00;;;27.10;82.60;;;;;;1935717;72;21089;-78
2021/11/09 13:15:09;;;;;;;14.78;8.78;;;27.00;82.80;;;;;;1952238;72;21146;-78
2021/11/09 13:17:58;;;;;;;14.30;9.25;;;27.00;83.10;;;;;;1919397;74;21587;-79
2021/11/09 13:20:23;;;;;;;13.32;8.83;;;27.00;83.10;;;;;;1911990;73;21186;-79
2021/11/09 13:22:57;;;;;;;13.28;8.65;;;26.90;83.10;;;;;;1942047;72;21580;-77
2021/11/09 13:25:29;;;;;;;14.78;9.45;;;26.90;83.50;;;;;;1943047;72;21128;-77
2021/11/09 13:28:05;;;;;;;16.17;8.58;;;26.90;83.20;;;;;;1932953;72;21159;-77
2021/11/09 13:30:42;;;;;;;14.68;9.45;;;26.90;83.50;;;;;;1933067;72;21114;-77
2021/11/09 13:33:16;;;;;;;16.02;9.48;;;26.80;83.40;;;;;;1932602;72;21733;-77
2021/11/09 13:35:48;;;;;;;15.48;8.98;;;26.80;83.50;;;;;;1935563;72;21152;-77
2021/11/09 13:38:21;;;;;;;15.65;9.23;;;26.80;83.50;;;;;;1907655;72;21175;-77
2021/11/09 13:40:54;;;;;;;16.87;9.75;;;26.80;83.70;;;;;;1903597;74;21065;-77
2021/11/09 13:43:31;;;;;;;13.48;8.43;;;26.80;83.70;;;;;;1901523;74;21627;-78
2021/11/09 13:46:08;;;;;;;14.38;8.83;;;26.70;83.70;;;;;;1902195;74;21205;-78
2021/11/09 13:48:43;;;;;;;15.05;9.45;;;26.70;83.70;;;;;;1906766;74;21112;-78
2021/11/09 13:51:16;;;;;;;15.78;8.68;;;26.70;84.00;;;;;;1907681;74;21706;-78
2021/11/09 13:53:49;;;;;;;12.68;9.75;;;26.70;84.60;;;;;;1903946;74;21080;-78
2021/11/09 13:56:23;;;;;;;17.20;9.95;;;26.70;84.10;;;;;;1915817;74;21160;-78
2021/11/09 13:58:55;;;;;;;16.23;10.10;;;26.60;84.40;;;;;;1902643;74;21143;-78
2021/11/09 14:01:28;;;;;;;17.02;10.08;;;26.60;84.00;;;;;;1911824;73;21104;-76
2021/11/09 14:04:06;;;;;;;17.45;10.45;;;26.60;84.40;;;;;;1902035;74;21122;-78
2021/11/09 14:09:30;;;;;;;18.67;11.03;;;26.50;84.90;;;;;;1900846;74;21111;-77
2021/11/09 14:11:57;;;;;;;20.45;11.80;;;26.50;84.70;;;;;;1899416;74;21132;-77
2021/11/09 14:16:50;;;;;;;18.32;11.35;;;26.40;84.80;;;;;;1905650;74;21167;-78
2021/11/09 14:19:24;;;;;;;14.38;10.50;;;26.40;84.80;;;;;;1901832;74;21243;-78
2021/11/09 14:21:58;;;;;;;18.87;10.68;;;26.40;84.60;;;;;;1902728;74;21930;-79
2021/11/09 14:24:30;;;;;;;11.90;9.23;;;26.30;84.60;;;;;;1907653;73;21581;-79
2021/11/09 14:27:07;;;;;;;14.10;9.55;;;26.40;84.40;;;;;;1899622;74;21139;-80
2021/11/09 14:29:42;;;;;;;14.95;8.80;;;26.30;84.10;;;;;;1902184;74;21624;-79
2021/11/09 14:32:17;;;;;;;15.58;9.43;;;26.30;84.00;;;;;;1903784;74;21195;-79
2021/11/09 14:34:50;;;;;;;13.13;8.98;;;26.20;83.80;;;;;;1903415;74;21086;-79
2021/11/09 14:37:26;;;;;;;11.22;7.67;;;26.20;83.80;;;;;;1908404;73;21145;-79
2021/11/09 14:40:04;;;;;;;13.53;8.13;;;26.20;83.70;;;;;;1928566;73;21080;-78
2021/11/09 14:42:38;;;;;;;12.33;8.10;;;26.20;83.60;;;;;;1933297;73;21158;-78
2021/11/09 14:45:08;;;;;;;14.98;8.43;;;26.20;83.70;;;;;;1927257;73;21521;-78
2021/11/09 14:47:39;;;;;;;14.07;8.48;;;26.20;83.50;;;;;;1918567;73;21100;-79
2021/11/09 14:50:20;;;;;;;10.63;8.18;;;26.20;83.50;;;;;;1923068;72;21181;-78
2021/11/09 14:52:51;;;;;;;11.80;7.83;;;26.20;83.50;;;;;;1917076;72;21134;-79
2021/11/09 14:55:29;;;;;;;14.98;9.35;;;26.20;83.40;;;;;;1879775;75;21658;-79
2021/11/09 14:57:58;;;;;;;11.45;7.58;;;26.20;83.30;;;;;;1906536;74;21681;-78
2021/11/09 15:00:29;;;;;;;12.88;8.88;;;26.20;83.10;;;;;;1900291;74;21176;-79
2021/11/09 15:03:03;;;;;;;11.63;8.08;;;26.10;83.30;;;;;;1915989;74;21127;-79
2021/11/09 15:05:35;;;;;;;15.85;7.70;;;26.10;83.30;;;;;;1926693;72;21167;-80
2021/11/09 15:08:32;;;;;;;12.40;7.80;;;26.10;83.10;;;;;;1916404;72;21193;-77
2021/11/09 15:10:59;;;;;;;10.10;7.35;;;26.10;83.30;;;;;;1845594;75;21197;-78
2021/11/09 15:13:24;;;;;;;11.83;7.53;;;26.00;83.40;;;;;;1886673;75;21197;-77
2021/11/09 15:26:16;;;;;;;12.90;7.35;;;25.80;83.60;;;;;;1900644;75;21079;-77
2021/11/09 15:31:09;;;;;;;12.88;7.22;;;25.70;83.70;;;;;;1886779;74;21185;-77
2021/11/09 15:38:45;;;;;;;11.73;7.10;;;25.70;84.10;;;;;;1903478;75;21167;-78
2021/11/09 15:41:17;;;;;;;14.60;7.90;;;25.60;84.10;;;;;;1920530;72;21107;-79
2021/11/09 15:43:49;;;;;;;10.82;6.72;;;25.60;84.00;;;;;;1908633;73;21664;-78
2021/11/09 15:46:19;;;;;;;11.65;6.95;;;25.60;84.00;;;;;;1882497;75;21185;-78
2021/11/09 15:48:51;;;;;;;11.78;7.60;;;25.50;83.90;;;;;;1923993;72;21933;-78
2021/11/09 15:51:24;;;;;;;9.40;6.80;;;25.50;83.80;;;;;;1908078;75;21611;-77
2021/11/09 15:53:55;;;;;;;11.68;7.62;;;25.50;83.80;;;;;;1897749;75;21615;-78
2021/11/09 15:56:26;;;;;;;11.00;7.65;;;25.50;83.70;;;;;;1905497;73;21124;-78